Time;durP1;ratioP1;P1;durP2;ratioP2;P2;SDS_P1;SDS_P2;PMS_P1;PMS_P2;Temp;Humidity;BMP_temperature;BMP_pressure;BME280_temperature;BME280_humidity;BME280_pressure;Samples;Min_cycle;Max_cycle;Signal;HPM_P1;HPM_P2
2022/03/12 00:00:36;;;;;;;35.40;9.90;;;21.00;43.80;;;;;;5013991;28;20259;-71
2022/03/12 00:03:02;;;;;;;35.30;11.50;;;21.00;44.00;;;;;;5014290;28;20217;-72
2022/03/12 00:05:33;;;;;;;40.23;11.70;;;21.00;43.90;;;;;;5014306;28;20798;-71
2022/03/12 00:08:03;;;;;;;36.43;11.30;;;21.00;43.90;;;;;;5014331;28;20677;-72
2022/03/12 00:10:32;;;;;;;37.80;11.70;;;21.00;44.00;;;;;;5013971;28;20433;-71
2022/03/12 00:12:59;;;;;;;30.73;8.93;;;21.00;43.80;;;;;;5014003;28;20441;-71
2022/03/12 00:15:25;;;;;;;37.80;9.73;;;20.90;44.50;;;;;;5014049;28;20409;-71
2022/03/12 00:17:51;;;;;;;31.57;10.03;;;20.90;43.80;;;;;;5013653;28;20418;-72
2022/03/12 00:20:19;;;;;;;30.90;10.37;;;20.90;43.90;;;;;;5013566;28;20423;-72
2022/03/12 00:22:48;;;;;;;29.10;10.50;;;20.90;44.00;;;;;;5013830;28;20473;-71
2022/03/12 00:25:26;;;;;;;24.83;9.57;;;20.90;44.50;;;;;;5013982;28;20413;-71
2022/03/12 00:27:52;;;;;;;30.07;9.93;;;20.90;44.00;;;;;;5013957;28;20755;-71
2022/03/12 00:30:24;;;;;;;35.60;10.53;;;20.90;44.00;;;;;;5013355;28;20825;-72
2022/03/12 00:32:52;;;;;;;36.60;10.17;;;20.90;44.10;;;;;;5013891;28;20509;-72
2022/03/12 00:35:18;;;;;;;28.73;9.90;;;20.90;44.00;;;;;;5013795;28;20425;-71
2022/03/12 00:37:45;;;;;;;31.10;9.20;;;20.90;44.00;;;;;;5013801;28;20509;-71
2022/03/12 00:40:11;;;;;;;29.77;10.20;;;20.90;43.90;;;;;;5013278;28;20409;-72
2022/03/12 00:42:37;;;;;;;27.93;9.73;;;20.90;43.80;;;;;;5013541;28;20471;-72
2022/03/12 00:45:03;;;;;;;32.43;10.67;;;20.90;44.00;;;;;;5013654;28;20761;-72
2022/03/12 00:47:29;;;;;;;28.17;9.97;;;20.90;43.90;;;;;;5013662;28;20178;-72
2022/03/12 00:49:54;;;;;;;26.93;9.27;;;20.80;43.70;;;;;;5013160;28;20174;-71
2022/03/12 00:52:21;;;;;;;32.10;9.73;;;20.80;44.00;;;;;;5013463;28;20336;-71
2022/03/12 00:54:47;;;;;;;25.50;8.43;;;20.80;44.00;;;;;;5013433;28;20232;-72
2022/03/12 00:57:13;;;;;;;28.87;9.20;;;20.80;44.00;;;;;;5014816;28;20432;-72
2022/03/12 00:59:40;;;;;;;26.83;9.37;;;20.80;44.30;;;;;;5012972;28;20425;-72
2022/03/12 01:02:08;;;;;;;28.27;9.53;;;20.80;44.00;;;;;;5014408;28;20567;-71
2022/03/12 01:04:34;;;;;;;24.53;8.47;;;20.80;44.00;;;;;;5013236;28;20453;-72
2022/03/12 01:07:00;;;;;;;26.93;8.37;;;20.80;44.50;;;;;;5013330;28;20410;-71
2022/03/12 01:09:26;;;;;;;28.10;8.77;;;20.80;44.00;;;;;;5012872;28;20418;-71
2022/03/12 01:11:52;;;;;;;27.97;8.90;;;20.80;44.20;;;;;;5012988;28;20206;-72
2022/03/12 01:14:17;;;;;;;22.67;8.00;;;20.80;44.60;;;;;;5013200;28;20178;-72
2022/03/12 01:16:43;;;;;;;21.40;8.00;;;20.80;44.30;;;;;;5013214;28;20479;-72
2022/03/12 01:19:09;;;;;;;21.00;9.27;;;20.80;44.40;;;;;;5012644;28;20170;-72
2022/03/12 01:21:34;;;;;;;22.60;9.07;;;20.80;44.60;;;;;;5012982;28;20198;-72
2022/03/12 01:24:00;;;;;;;21.67;8.57;;;20.80;44.40;;;;;;5012704;28;20221;-72
2022/03/12 01:26:26;;;;;;;20.87;7.53;;;20.70;44.20;;;;;;5012758;28;20217;-72
2022/03/12 01:28:52;;;;;;;31.17;9.03;;;20.80;44.40;;;;;;5011500;28;20253;-72
2022/03/12 01:31:19;;;;;;;25.03;8.80;;;20.70;44.60;;;;;;5013786;28;20194;-72
2022/03/12 01:33:45;;;;;;;19.70;7.60;;;20.70;44.80;;;;;;5012707;28;20504;-71
2022/03/12 01:36:11;;;;;;;19.87;7.50;;;20.70;44.50;;;;;;5012657;28;20922;-72
2022/03/12 01:38:49;;;;;;;25.40;7.70;;;20.70;44.50;;;;;;5012403;28;20420;-71
2022/03/12 01:41:26;;;;;;;19.40;7.07;;;20.70;44.30;;;;;;5012615;28;20523;-72
2022/03/12 01:43:53;;;;;;;23.70;7.07;;;20.70;44.70;;;;;;5012747;28;20543;-72
2022/03/12 01:46:29;;;;;;;14.97;6.63;;;20.70;44.20;;;;;;5012648;28;20413;-72
2022/03/12 01:48:55;;;;;;;18.37;7.90;;;20.70;44.50;;;;;;5012272;28;20425;-71
2022/03/12 01:51:21;;;;;;;22.87;7.60;;;20.70;44.40;;;;;;5012471;28;20429;-71
2022/03/12 01:53:47;;;;;;;25.63;7.70;;;20.70;44.60;;;;;;5012634;28;20429;-71
2022/03/12 01:56:12;;;;;;;23.00;7.73;;;20.70;44.50;;;;;;5012537;28;20178;-71
2022/03/12 01:58:45;;;;;;;24.80;6.87;;;20.70;44.60;;;;;;5012186;28;20421;-71
2022/03/12 02:01:13;;;;;;;23.23;6.70;;;20.70;44.70;;;;;;5012257;28;20198;-71
2022/03/12 02:03:38;;;;;;;23.60;7.20;;;20.70;44.70;;;;;;5012188;28;20465;-71
2022/03/12 02:06:05;;;;;;;19.30;6.03;;;20.70;44.40;;;;;;5012251;28;20492;-71
2022/03/12 02:08:31;;;;;;;19.20;7.63;;;20.70;44.30;;;;;;5011790;28;20198;-71
2022/03/12 02:10:57;;;;;;;21.70;7.83;;;20.70;44.20;;;;;;5011963;28;20531;-71
2022/03/12 02:13:24;;;;;;;27.30;8.07;;;20.70;44.30;;;;;;5012166;28;20198;-71
2022/03/12 02:15:58;;;;;;;16.73;6.90;;;20.70;43.60;;;;;;5012081;28;20422;-71
2022/03/12 02:18:23;;;;;;;17.17;6.67;;;20.70;44.20;;;;;;5012042;28;20421;-70
2022/03/12 02:20:49;;;;;;;18.40;6.60;;;20.70;43.80;;;;;;5011694;28;20425;-70
2022/03/12 02:23:15;;;;;;;13.70;5.30;;;20.70;43.90;;;;;;5011993;28;20565;-69
2022/03/12 02:25:40;;;;;;;19.97;7.00;;;20.70;43.70;;;;;;5012158;28;20198;-70
2022/03/12 02:28:17;;;;;;;13.70;6.23;;;20.70;44.20;;;;;;5013500;28;20249;-71
2022/03/12 02:30:51;;;;;;;14.83;6.60;;;20.70;44.20;;;;;;5011606;28;20749;-71
2022/03/12 02:33:27;;;;;;;15.87;6.00;;;20.70;44.30;;;;;;5012062;28;20940;-71
2022/03/12 02:35:53;;;;;;;12.80;5.77;;;20.70;44.40;;;;;;5012050;28;20420;-72
2022/03/12 02:38:22;;;;;;;17.17;6.13;;;20.70;44.50;;;;;;5011969;28;20516;-71
2022/03/12 02:40:51;;;;;;;11.30;5.47;;;20.70;44.60;;;;;;5015070;28;20536;-71
2022/03/12 02:43:25;;;;;;;14.63;6.60;;;20.70;44.20;;;;;;5016076;28;20465;-70
2022/03/12 02:45:52;;;;;;;14.27;5.73;;;20.70;44.50;;;;;;5016158;28;20415;-69
2022/03/12 02:48:18;;;;;;;19.97;6.60;;;20.70;44.90;;;;;;5015950;28;20463;-71
2022/03/12 02:50:45;;;;;;;17.00;6.00;;;20.70;44.40;;;;;;5015504;28;20433;-72
2022/03/12 02:53:10;;;;;;;19.30;6.07;;;20.60;44.70;;;;;;5015874;28;20888;-71
2022/03/12 02:55:41;;;;;;;21.80;6.90;;;20.60;44.90;;;;;;5015733;28;20445;-71
2022/03/12 02:58:10;;;;;;;19.63;5.93;;;20.60;44.90;;;;;;5015800;28;20182;-72
2022/03/12 03:00:37;;;;;;;13.20;5.73;;;20.60;44.10;;;;;;5014944;28;20433;-72
2022/03/12 03:03:05;;;;;;;19.37;6.30;;;20.60;44.70;;;;;;5015417;28;21051;-71
2022/03/12 03:05:44;;;;;;;11.17;5.30;;;20.60;44.50;;;;;;5015474;28;20929;-71
2022/03/12 03:08:12;;;;;;;12.37;5.73;;;20.60;44.60;;;;;;5015654;28;20417;-71
2022/03/12 03:10:41;;;;;;;15.43;5.57;;;20.60;44.50;;;;;;5014918;28;20436;-70
2022/03/12 03:13:34;;;;;;;11.17;5.03;;;20.60;44.60;;;;;;5015431;28;20952;-70
2022/03/12 03:16:09;;;;;;;11.13;4.97;;;20.60;44.60;;;;;;5015432;28;20465;-71
2022/03/12 03:18:40;;;;;;;11.43;4.90;;;20.60;45.20;;;;;;5015145;28;20415;-70
2022/03/12 03:21:12;;;;;;;11.40;5.30;;;20.60;45.10;;;;;;5015195;28;20483;-70
2022/03/12 03:23:38;;;;;;;16.33;5.90;;;20.60;44.70;;;;;;5015205;28;20461;-69
2022/03/12 03:26:05;;;;;;;11.30;4.60;;;20.60;44.90;;;;;;5015198;28;20917;-69
2022/03/12 03:28:30;;;;;;;14.53;5.30;;;20.60;44.90;;;;;;5014910;28;20409;-70
2022/03/12 03:30:56;;;;;;;10.90;4.70;;;20.60;45.00;;;;;;5014970;28;20528;-69
2022/03/12 03:33:23;;;;;;;9.90;5.33;;;20.60;44.90;;;;;;5015053;28;20261;-69
2022/03/12 03:35:50;;;;;;;16.13;5.13;;;20.60;44.80;;;;;;5015075;28;20178;-68
2022/03/12 03:38:17;;;;;;;12.00;4.93;;;20.60;44.70;;;;;;5015006;28;20511;-70
2022/03/12 03:40:44;;;;;;;11.07;4.63;;;20.60;44.90;;;;;;5014462;28;20429;-69
2022/03/12 03:43:15;;;;;;;13.23;5.30;;;20.60;44.60;;;;;;5014876;28;20491;-69
2022/03/12 03:45:51;;;;;;;13.10;5.40;;;20.60;44.70;;;;;;5014153;28;20504;-70
2022/03/12 03:48:19;;;;;;;14.10;5.00;;;20.60;44.60;;;;;;5014817;28;20471;-68
2022/03/12 03:50:46;;;;;;;16.50;5.43;;;20.60;44.50;;;;;;5013372;28;20437;-72
2022/03/12 03:53:14;;;;;;;11.23;4.50;;;20.70;44.80;;;;;;5015981;28;20417;-72
2022/03/12 03:55:41;;;;;;;11.10;4.30;;;20.70;44.40;;;;;;5014595;28;20864;-70
2022/03/12 03:58:07;;;;;;;8.80;4.23;;;20.70;44.50;;;;;;5014650;28;20410;-71
2022/03/12 04:00:32;;;;;;;10.23;4.40;;;20.70;44.60;;;;;;5014156;28;20445;-71
2022/03/12 04:03:02;;;;;;;15.97;5.57;;;20.70;44.70;;;;;;5014516;28;20206;-71
2022/03/12 04:05:30;;;;;;;10.80;4.03;;;20.70;44.80;;;;;;5014524;28;20535;-71
2022/03/12 04:07:57;;;;;;;9.60;3.93;;;20.70;44.70;;;;;;5014434;28;20417;-71
2022/03/12 04:10:24;;;;;;;12.50;4.20;;;20.70;44.30;;;;;;5013925;28;20513;-70
2022/03/12 04:12:49;;;;;;;16.70;5.03;;;20.70;44.70;;;;;;5014339;28;20967;-71
2022/03/12 04:15:17;;;;;;;11.63;4.27;;;20.70;44.20;;;;;;5014413;28;20414;-71
2022/03/12 04:17:44;;;;;;;10.73;4.37;;;20.70;44.30;;;;;;5014191;28;20236;-72
2022/03/12 04:20:18;;;;;;;14.10;3.93;;;20.70;44.30;;;;;;5013746;28;20487;-71
2022/03/12 04:22:46;;;;;;;15.90;4.40;;;20.70;44.50;;;;;;5014145;28;20866;-72
2022/03/12 04:25:12;;;;;;;8.70;4.10;;;20.70;44.40;;;;;;5014161;28;20488;-72
2022/03/12 04:27:38;;;;;;;10.60;4.23;;;20.70;44.20;;;;;;5013945;28;20416;-71
2022/03/12 04:30:06;;;;;;;10.47;4.37;;;20.70;43.90;;;;;;5013503;28;20413;-72
2022/03/12 04:32:32;;;;;;;8.87;3.83;;;20.70;44.10;;;;;;5013886;28;20417;-72
2022/03/12 04:34:58;;;;;;;10.40;4.33;;;20.70;44.20;;;;;;5013870;28;20466;-72
2022/03/12 04:37:23;;;;;;;8.37;4.00;;;20.70;44.10;;;;;;5013916;28;20178;-72
2022/03/12 04:39:49;;;;;;;10.90;4.20;;;20.70;44.00;;;;;;5013437;28;20179;-72
2022/03/12 04:42:24;;;;;;;7.83;4.00;;;20.70;43.80;;;;;;5013678;28;20635;-73
2022/03/12 04:44:50;;;;;;;7.93;4.67;;;20.70;44.00;;;;;;5013779;28;20743;-71
2022/03/12 04:47:19;;;;;;;8.23;4.00;;;20.70;44.00;;;;;;5013653;28;20409;-72
2022/03/12 04:49:46;;;;;;;9.23;3.80;;;20.70;44.00;;;;;;5013240;28;20420;-71
2022/03/12 04:52:12;;;;;;;8.00;3.67;;;20.70;44.20;;;;;;5013641;28;20484;-72
2022/03/12 04:54:39;;;;;;;9.60;3.90;;;20.70;44.30;;;;;;5013625;28;20417;-72
2022/03/12 04:57:05;;;;;;;11.30;4.17;;;20.60;43.80;;;;;;5013488;28;20504;-72
2022/03/12 04:59:31;;;;;;;7.63;3.10;;;20.60;44.00;;;;;;5012940;28;20920;-72
2022/03/12 05:01:59;;;;;;;10.00;3.77;;;20.60;44.10;;;;;;5012984;28;20512;-72
2022/03/12 05:04:25;;;;;;;8.50;3.63;;;20.60;44.10;;;;;;5013285;28;20185;-72
2022/03/12 05:06:51;;;;;;;7.53;3.67;;;20.60;43.90;;;;;;5013330;28;20422;-72
2022/03/12 05:09:19;;;;;;;10.63;4.30;;;20.60;44.00;;;;;;5012926;28;20209;-72
2022/03/12 05:11:45;;;;;;;7.87;3.47;;;20.60;44.10;;;;;;5013012;28;20457;-72
2022/03/12 05:14:12;;;;;;;14.70;4.30;;;20.60;43.80;;;;;;5013287;28;20557;-72
2022/03/12 05:16:38;;;;;;;7.83;3.63;;;20.60;44.00;;;;;;5013151;28;20786;-72
2022/03/12 05:19:06;;;;;;;8.13;3.27;;;20.60;43.80;;;;;;5012630;28;20420;-72
2022/03/12 05:21:33;;;;;;;7.73;3.60;;;20.60;44.00;;;;;;5013031;28;20472;-72
2022/03/12 05:23:58;;;;;;;5.40;3.00;;;20.60;44.20;;;;;;5012934;28;20471;-72
2022/03/12 05:26:24;;;;;;;6.87;3.23;;;20.60;44.10;;;;;;5013025;28;20421;-72
2022/03/12 05:28:50;;;;;;;7.57;3.30;;;20.60;43.40;;;;;;5012697;28;20175;-70
2022/03/12 05:31:17;;;;;;;8.00;3.33;;;20.60;43.80;;;;;;5012732;28;20205;-70
2022/03/12 05:33:43;;;;;;;8.40;3.30;;;20.60;43.50;;;;;;5012700;28;20183;-70
2022/03/12 05:36:08;;;;;;;5.40;2.77;;;20.60;43.90;;;;;;5012721;28;20479;-71
2022/03/12 05:38:35;;;;;;;5.87;3.50;;;20.60;43.70;;;;;;5012285;28;20429;-71
2022/03/12 05:41:11;;;;;;;7.80;3.60;;;20.60;44.30;;;;;;5012322;28;20202;-71
2022/03/12 05:43:46;;;;;;;11.63;3.10;;;20.60;44.10;;;;;;5012637;28;20514;-72
2022/03/12 05:46:16;;;;;;;6.63;3.37;;;20.60;43.80;;;;;;5012661;28;20789;-72
2022/03/12 05:48:43;;;;;;;8.53;3.87;;;20.60;43.90;;;;;;4999853;28;20492;-72
2022/03/12 05:51:09;;;;;;;5.70;2.83;;;20.60;44.50;;;;;;5007690;28;20433;-71
2022/03/12 05:53:36;;;;;;;11.17;3.30;;;20.60;44.20;;;;;;5010247;28;20428;-71
2022/03/12 05:56:02;;;;;;;5.63;3.10;;;20.60;44.30;;;;;;4992956;28;20422;-71
2022/03/12 05:58:28;;;;;;;6.00;3.53;;;20.60;44.30;;;;;;4992660;28;20431;-70
2022/03/12 06:00:55;;;;;;;7.60;3.33;;;20.60;44.20;;;;;;4993669;28;20449;-70
2022/03/12 06:03:23;;;;;;;5.00;3.00;;;20.60;43.40;;;;;;4992726;28;20210;-70
2022/03/12 06:05:56;;;;;;;5.10;3.20;;;20.60;44.10;;;;;;4992709;28;20442;-70
2022/03/12 06:08:22;;;;;;;5.20;3.00;;;20.60;44.10;;;;;;4993894;28;20879;-70
2022/03/12 06:10:52;;;;;;;9.57;3.23;;;20.60;43.90;;;;;;4991820;28;20453;-70
2022/03/12 06:13:21;;;;;;;7.80;3.33;;;20.60;44.20;;;;;;4992485;28;20472;-70
2022/03/12 06:15:49;;;;;;;5.33;3.07;;;20.60;44.20;;;;;;4993489;28;20428;-70
2022/03/12 06:18:15;;;;;;;7.83;3.10;;;20.60;43.50;;;;;;4991723;28;20442;-70
2022/03/12 06:20:42;;;;;;;8.53;3.07;;;20.60;43.70;;;;;;4991634;28;20473;-70
2022/03/12 06:23:08;;;;;;;8.10;3.20;;;20.60;43.90;;;;;;4992201;28;20541;-70
2022/03/12 06:25:34;;;;;;;4.17;2.77;;;20.60;44.10;;;;;;4992442;28;20529;-71
2022/03/12 06:28:02;;;;;;;7.43;3.70;;;20.60;43.60;;;;;;4991765;28;20171;-70
2022/03/12 06:30:28;;;;;;;5.43;3.10;;;20.60;43.60;;;;;;4988485;28;20473;-71
2022/03/12 06:32:56;;;;;;;4.47;2.70;;;20.60;44.00;;;;;;4991903;28;20422;-71
2022/03/12 06:35:23;;;;;;;6.37;3.00;;;20.60;43.60;;;;;;4992823;28;20433;-71
2022/03/12 06:37:48;;;;;;;5.50;2.77;;;20.60;43.40;;;;;;4993390;28;20802;-71
2022/03/12 06:40:15;;;;;;;6.07;3.00;;;20.70;44.10;;;;;;4991525;28;21174;-71
2022/03/12 06:42:54;;;;;;;4.50;2.70;;;20.70;43.60;;;;;;4992281;28;20211;-71
2022/03/12 06:45:21;;;;;;;4.93;2.97;;;20.70;43.30;;;;;;4992146;28;21020;-72
2022/03/12 06:47:47;;;;;;;10.60;3.23;;;20.70;43.50;;;;;;4991732;28;20456;-72
2022/03/12 06:50:17;;;;;;;9.07;3.00;;;20.70;43.70;;;;;;4991247;28;20770;-70
2022/03/12 06:52:47;;;;;;;15.73;2.90;;;20.70;43.70;;;;;;4991682;28;20182;-70
2022/03/12 06:55:13;;;;;;;6.90;3.33;;;20.70;43.80;;;;;;5000395;28;20809;-70
2022/03/12 06:57:40;;;;;;;6.70;3.00;;;20.70;43.60;;;;;;5011665;28;20413;-70
2022/03/12 07:00:10;;;;;;;12.50;3.80;;;20.70;43.60;;;;;;4995879;28;20218;-71
2022/03/12 07:02:36;;;;;;;5.33;3.03;;;20.70;43.90;;;;;;4991420;28;20494;-71
2022/03/12 07:05:02;;;;;;;5.10;2.80;;;20.80;43.70;;;;;;5005512;28;21067;-70
2022/03/12 07:07:28;;;;;;;5.90;3.13;;;20.90;43.40;;;;;;4991775;28;20164;-70
2022/03/12 07:09:53;;;;;;;5.87;3.20;;;20.90;43.50;;;;;;4998902;28;20261;-71
2022/03/12 07:12:19;;;;;;;6.40;2.83;;;20.90;43.30;;;;;;4994377;28;20778;-71
2022/03/12 07:14:45;;;;;;;6.03;3.07;;;21.00;43.40;;;;;;4994334;28;20222;-71
2022/03/12 07:17:11;;;;;;;6.70;3.20;;;21.00;43.60;;;;;;4992835;28;20261;-69
2022/03/12 07:19:37;;;;;;;6.90;2.93;;;21.00;43.50;;;;;;4992054;28;20246;-72
2022/03/12 07:22:03;;;;;;;5.33;2.40;;;21.00;43.50;;;;;;4990807;28;20521;-70
2022/03/12 07:24:29;;;;;;;5.47;3.23;;;21.10;43.40;;;;;;4990534;28;20187;-70
2022/03/12 07:26:54;;;;;;;6.00;3.33;;;21.10;43.60;;;;;;4995068;28;20422;-71
2022/03/12 07:29:20;;;;;;;5.53;2.97;;;21.10;43.20;;;;;;4994951;28;20265;-70
2022/03/12 07:31:46;;;;;;;10.07;3.83;;;21.10;43.40;;;;;;4995453;28;20191;-72
2022/03/12 07:34:12;;;;;;;5.90;3.17;;;21.20;43.60;;;;;;4995549;28;20175;-71
2022/03/12 07:36:37;;;;;;;5.67;2.87;;;21.30;44.80;;;;;;4995533;28;20168;-72
2022/03/12 07:39:03;;;;;;;8.60;3.27;;;21.30;44.40;;;;;;4994963;28;20410;-71
2022/03/12 07:41:30;;;;;;;4.43;3.10;;;21.40;44.30;;;;;;4996726;28;20194;-72
2022/03/12 07:43:56;;;;;;;7.67;3.40;;;21.50;44.00;;;;;;4995279;28;20461;-69
2022/03/12 07:46:22;;;;;;;8.20;4.30;;;21.50;42.70;;;;;;4995360;28;20406;-70
2022/03/12 07:48:48;;;;;;;13.97;4.83;;;21.50;42.70;;;;;;4995076;28;20175;-71
2022/03/12 07:51:14;;;;;;;12.23;6.30;;;21.60;42.20;;;;;;4994963;28;20198;-69
2022/03/12 07:53:40;;;;;;;24.40;9.40;;;21.60;42.70;;;;;;4996485;28;20421;-69
2022/03/12 07:56:07;;;;;;;24.17;11.30;;;21.60;43.10;;;;;;4996447;28;20203;-69
2022/03/12 07:58:33;;;;;;;21.60;9.20;;;21.60;42.70;;;;;;4994770;28;20418;-71
2022/03/12 08:00:59;;;;;;;18.23;8.70;;;21.60;43.20;;;;;;4995006;28;20434;-71
2022/03/12 08:03:26;;;;;;;11.43;5.33;;;21.60;43.60;;;;;;4995012;28;20531;-69
2022/03/12 08:05:52;;;;;;;22.23;5.50;;;21.60;43.40;;;;;;4995057;28;20167;-70
2022/03/12 08:08:18;;;;;;;10.57;5.00;;;21.60;43.40;;;;;;4994972;28;20517;-71
2022/03/12 08:13:29;;;;;;;11.43;6.27;;;21.70;43.20;;;;;;4996369;28;20433;-72
2022/03/12 08:15:55;;;;;;;7.03;4.70;;;21.70;43.60;;;;;;4994720;28;20965;-70
2022/03/12 08:18:22;;;;;;;22.47;4.93;;;21.60;43.70;;;;;;4994533;28;20957;-70
2022/03/12 08:20:48;;;;;;;6.73;4.33;;;21.60;43.60;;;;;;4994338;28;21163;-71
2022/03/12 08:23:15;;;;;;;11.67;4.80;;;21.60;43.60;;;;;;4994486;28;20508;-70
2022/03/12 08:25:41;;;;;;;10.87;5.10;;;21.60;43.90;;;;;;4994510;28;20439;-71
2022/03/12 08:28:07;;;;;;;8.97;5.17;;;21.70;43.70;;;;;;4994518;28;20449;-71
2022/03/12 08:30:34;;;;;;;7.43;4.50;;;21.70;43.80;;;;;;4993989;28;20286;-70
2022/03/12 08:33:00;;;;;;;7.40;4.20;;;21.70;43.90;;;;;;4994416;28;20420;-71
2022/03/12 08:35:26;;;;;;;9.33;4.37;;;21.70;43.70;;;;;;4994506;28;20468;-72
2022/03/12 08:37:52;;;;;;;7.37;4.50;;;21.70;44.00;;;;;;4993798;28;20430;-72
2022/03/12 08:40:18;;;;;;;6.60;3.90;;;21.70;43.70;;;;;;4993834;28;20175;-72
2022/03/12 08:42:44;;;;;;;7.20;4.10;;;21.70;44.00;;;;;;4994203;28;20469;-71
2022/03/12 08:45:11;;;;;;;6.97;3.93;;;21.70;43.90;;;;;;4994225;28;20402;-71
2022/03/12 08:47:38;;;;;;;10.10;4.20;;;21.70;44.10;;;;;;4994247;28;20226;-71
2022/03/12 08:50:08;;;;;;;8.30;4.40;;;21.70;43.70;;;;;;4993846;28;20760;-71
2022/03/12 08:52:35;;;;;;;8.10;4.60;;;21.70;43.60;;;;;;4994147;28;20545;-70
2022/03/12 08:55:01;;;;;;;7.90;2.97;;;21.70;44.00;;;;;;4994061;28;20874;-71
2022/03/12 08:57:27;;;;;;;6.93;4.10;;;21.70;44.20;;;;;;4994042;28;20501;-72
2022/03/12 08:59:52;;;;;;;7.23;3.50;;;21.80;44.30;;;;;;5026266;28;20546;-69
2022/03/12 09:02:18;;;;;;;6.00;3.27;;;21.80;44.50;;;;;;4993509;28;20205;-70
2022/03/12 09:04:45;;;;;;;6.43;3.60;;;21.80;44.40;;;;;;4993743;28;20194;-70
2022/03/12 09:07:10;;;;;;;5.23;3.17;;;21.90;44.50;;;;;;4993793;28;20454;-70
2022/03/12 09:09:37;;;;;;;4.40;3.30;;;21.90;44.50;;;;;;4993307;28;20454;-70
2022/03/12 09:12:03;;;;;;;5.30;2.90;;;22.00;44.60;;;;;;4993525;28;20709;-70
2022/03/12 09:14:29;;;;;;;5.50;3.20;;;22.00;44.50;;;;;;4993609;28;20473;-70
2022/03/12 09:16:55;;;;;;;5.50;2.90;;;22.10;44.60;;;;;;4993605;28;20406;-70
2022/03/12 09:19:20;;;;;;;6.53;3.00;;;22.10;44.60;;;;;;4993132;28;20417;-70
2022/03/12 09:21:46;;;;;;;5.43;3.33;;;22.10;44.80;;;;;;4993517;28;20224;-70
2022/03/12 09:24:12;;;;;;;4.53;3.30;;;22.20;44.80;;;;;;4993478;28;20588;-69
2022/03/12 09:26:38;;;;;;;5.90;3.40;;;22.30;44.80;;;;;;4993481;28;20721;-70
2022/03/12 09:29:04;;;;;;;18.40;4.47;;;;;;;;;;4992968;28;20225;-67
2022/03/12 09:31:30;;;;;;;10.90;6.37;;;;;;;;;;4993323;28;20195;-67
2022/03/12 09:33:56;;;;;;;8.83;6.07;;;;;;;;;;4993243;28;20442;-66
2022/03/12 09:36:22;;;;;;;11.33;6.67;;;;;;;;;;4993245;28;20419;-67
2022/03/12 09:38:48;;;;;;;12.83;7.43;;;;;;;;;;4993003;28;20907;-67
2022/03/12 09:41:15;;;;;;;9.57;6.90;;;;;;;;;;4992940;28;20845;-66
2022/03/12 09:43:41;;;;;;;12.07;7.50;;;;;;;;;;4993082;28;20468;-68
2022/03/12 09:46:07;;;;;;;12.30;7.20;;;;;;;;;;4993060;28;20497;-68
2022/03/12 09:48:33;;;;;;;11.73;8.67;;;;;;;;;;4993514;28;20401;-68
2022/03/12 09:50:59;;;;;;;13.57;8.50;;;;;;;;;;4992531;28;20994;-68
2022/03/12 09:53:25;;;;;;;16.93;7.57;;;;;;;;;;4992959;28;20414;-68
2022/03/12 09:55:52;;;;;;;12.83;8.07;;;;;;;;;;4993082;28;20409;-68
2022/03/12 09:58:18;;;;;;;20.80;8.00;;;;;;;;;;4992953;28;20442;-67
2022/03/12 10:00:44;;;;;;;15.83;8.27;;;;;;;;;;4992377;28;20953;-67
2022/03/12 10:03:11;;;;;;;16.70;7.90;;;;;;;;;;4992727;28;20462;-67
2022/03/12 10:05:37;;;;;;;15.70;8.80;;;;;;;;;;4992696;28;20414;-67
2022/03/12 10:08:03;;;;;;;12.17;8.53;;;;;;;;;;4992600;28;20486;-68
2022/03/12 10:10:30;;;;;;;10.50;7.30;;;;;;;;;;4992220;28;20472;-68
2022/03/12 10:12:56;;;;;;;14.57;7.67;;;;;;;;;;4992676;28;20756;-69
2022/03/12 10:15:22;;;;;;;12.30;8.07;;;;;;;;;;4992698;28;20402;-68
2022/03/12 10:17:49;;;;;;;10.53;7.10;;;;;;;;;;4992573;28;20414;-68
2022/03/12 10:20:15;;;;;;;8.80;6.00;;;;;;;;;;4992019;28;20409;-69
2022/03/12 10:22:42;;;;;;;12.33;5.50;;;;;;;;;;4992449;28;20466;-69
2022/03/12 10:25:09;;;;;;;10.70;5.20;;;;;;;;;;4992417;28;20925;-69
2022/03/12 10:27:35;;;;;;;9.73;4.20;;;;;;;;;;4992489;28;20421;-69
2022/03/12 10:30:02;;;;;;;8.37;4.20;;;;;;;;;;4991885;28;20407;-69
2022/03/12 10:32:34;;;;;;;6.37;4.33;;;;;;;;;;4992531;28;20438;-68
2022/03/12 10:35:01;;;;;;;6.33;4.33;;;;;;;;;;4992237;28;20414;-69
2022/03/12 10:37:30;;;;;;;6.27;3.80;;;;;;;;;;4992396;28;20933;-69
2022/03/12 10:40:06;;;;;;;5.00;3.70;;;;;;;;;;4992273;28;20465;-68
2022/03/12 10:42:32;;;;;;;7.03;3.70;;;;;;;;;;4992258;28;20414;-69
2022/03/12 10:45:17;;;;;;;7.37;3.80;;;;;;;;;;4992307;28;20410;-69
2022/03/12 10:47:45;;;;;;;6.70;3.70;;;;;;;;;;4992335;28;20822;-70
2022/03/12 10:50:14;;;;;;;5.30;3.60;;;;;;;;;;4991740;28;20419;-70
2022/03/12 10:52:41;;;;;;;6.03;3.73;;;;;;;;;;4992377;28;20502;-75
2022/03/12 10:55:13;;;;;;;6.90;4.20;;;;;;;;;;4992154;28;20418;-69
2022/03/12 10:57:39;;;;;;;8.53;3.73;;;;;;;;;;4992335;28;20410;-70
2022/03/12 11:00:10;;;;;;;7.43;4.47;;;;;;;;;;4992214;28;20415;-69
2022/03/12 11:02:36;;;;;;;6.80;3.60;;;;;;;;;;4996160;28;20450;-70
2022/03/12 11:05:03;;;;;;;6.17;3.30;;;;;;;;;;4996142;28;20402;-71
2022/03/12 11:07:30;;;;;;;7.77;3.10;;;;;;;;;;4996038;28;20509;-71
2022/03/12 11:09:56;;;;;;;6.20;3.20;;;;;;;;;;4995582;28;20430;-71
2022/03/12 11:12:30;;;;;;;6.33;3.90;;;;;;;;;;4997194;28;20445;-69
2022/03/12 11:15:08;;;;;;;7.40;3.33;;;;;;;;;;4996051;28;20514;-70
2022/03/12 11:17:43;;;;;;;6.37;3.20;;;;;;;;;;4995932;28;20933;-70
2022/03/12 11:20:29;;;;;;;23.37;3.70;;;;;;;;;;4995360;28;20425;-71
2022/03/12 11:23:12;;;;;;;6.40;4.40;;;;;;;;;;4995761;28;20520;-68
2022/03/12 11:25:57;;;;;;;17.70;5.43;;;;;;;;;;4995894;28;20516;-67
2022/03/12 11:28:24;;;;;;;11.70;6.20;;;;;;;;;;4995647;28;20406;-66
2022/03/12 11:30:53;;;;;;;7.23;4.40;;;;;;;;;;4996911;28;20431;-67
2022/03/12 11:33:22;;;;;;;6.90;4.57;;;;;;;;;;4995606;28;20410;-67
2022/03/12 11:35:49;;;;;;;14.17;5.93;;;;;;;;;;4995450;28;20410;-67
2022/03/12 11:38:18;;;;;;;9.20;4.60;;;;;;;;;;4995337;28;20978;-66
2022/03/12 11:41:03;;;;;;;8.40;5.00;;;;;;;;;;4994659;28;20441;-67
2022/03/12 11:43:31;;;;;;;6.17;4.00;;;;;;;;;;4996320;28;20501;-67
2022/03/12 11:46:03;;;;;;;9.10;6.40;;;;;;;;;;4996321;28;20882;-66
2022/03/12 11:48:34;;;;;;;9.90;6.23;;;;;;;;;;4995051;28;20411;-68
2022/03/12 11:51:08;;;;;;;8.83;5.50;;;;;;;;;;4995113;28;20491;-67
2022/03/12 11:53:39;;;;;;;12.87;5.90;;;;;;;;;;4996571;28;20406;-67
2022/03/12 11:56:07;;;;;;;10.37;5.40;;;;;;;;;;4995224;28;20422;-68
2022/03/12 11:58:35;;;;;;;11.73;5.60;;;;;;;;;;4994735;28;20422;-67
2022/03/12 12:01:02;;;;;;;10.20;6.40;;;;;;;;;;4994809;28;20434;-69
2022/03/12 12:03:29;;;;;;;10.43;6.50;;;;;;;;;;4994989;28;20511;-68
2022/03/12 12:05:56;;;;;;;10.23;5.37;;;;;;;;;;4995026;28;20804;-67
2022/03/12 12:08:22;;;;;;;12.00;5.57;;;;;;;;;;4994736;28;20414;-69
2022/03/12 12:10:49;;;;;;;10.13;6.20;;;;;;;;;;4994515;28;20427;-68
2022/03/12 12:13:16;;;;;;;9.97;6.10;;;;;;;;;;4993804;28;20535;-68
2022/03/12 12:15:45;;;;;;;7.23;3.97;;;;;;;;;;4994722;28;20427;-68
2022/03/12 12:18:12;;;;;;;8.70;4.77;;;;;;;;;;4994669;28;20778;-73
2022/03/12 12:20:39;;;;;;;5.30;3.00;;;;;;;;;;4993989;28;20835;-69
2022/03/12 12:23:05;;;;;;;7.53;4.67;;;;;;;;;;4994672;28;20516;-68
2022/03/12 12:25:36;;;;;;;6.57;4.07;;;;;;;;;;4994454;28;20418;-69
2022/03/12 12:28:13;;;;;;;4.70;3.40;;;;;;;;;;4994407;28;20911;-69
2022/03/12 12:30:43;;;;;;;5.60;3.93;;;;;;;;;;4993843;28;20425;-70
2022/03/12 12:33:29;;;;;;;4.80;3.13;;;;;;;;;;4994408;28;20495;-72
2022/03/12 12:36:08;;;;;;;4.93;3.30;;;;;;;;;;4994335;28;20410;-70
2022/03/12 12:38:34;;;;;;;7.60;3.90;;;;;;;;;;4994192;28;20778;-71
2022/03/12 12:41:03;;;;;;;5.40;3.03;;;;;;;;;;4994139;28;20441;-70
2022/03/12 12:43:39;;;;;;;7.80;4.10;;;;;;;;;;4992280;28;20481;-71
2022/03/12 12:46:08;;;;;;;5.27;3.60;;;;;;;;;;4991037;28;20422;-70
2022/03/12 12:48:44;;;;;;;11.43;4.90;;;;;;;;;;4992772;28;20445;-70
2022/03/12 12:51:15;;;;;;;9.07;5.70;;;;;;;;;;4994012;28;20993;-69
2022/03/12 12:53:45;;;;;;;8.87;5.40;;;;;;;;;;4993166;28;20426;-69
2022/03/12 12:56:27;;;;;;;7.67;3.67;;;;;;;;;;4994678;28;20422;-70
2022/03/12 12:59:01;;;;;;;7.00;4.20;;;;;;;;;;5007885;28;20921;-70
2022/03/12 13:01:45;;;;;;;8.57;5.00;;;;;;;;;;4997395;28;20441;-71
2022/03/12 13:04:12;;;;;;;7.20;4.63;;;;;;;;;;4992546;28;20465;-71
2022/03/12 13:06:38;;;;;;;7.77;4.47;;;;;;;;;;4993513;28;20432;-70
2022/03/12 13:09:08;;;;;;;6.80;4.10;;;;;;;;;;4992126;28;20406;-71
2022/03/12 13:11:35;;;;;;;10.00;4.80;;;;;;;;;;4993239;28;20436;-70
2022/03/12 13:14:03;;;;;;;8.20;4.80;;;;;;;;;;4993642;28;20426;-71
2022/03/12 13:16:47;;;;;;;7.50;4.67;;;;;;;;;;4993490;28;20418;-71